Time;durP1;ratioP1;P1;durP2;ratioP2;P2;SDS_P1;SDS_P2;PMS_P1;PMS_P2;Temp;Humidity;BMP_temperature;BMP_pressure;BME280_temperature;BME280_humidity;BME280_pressure;Samples;Min_cycle;Max_cycle;Signal;HPM_P1;HPM_P2
2022/07/15 00:01:36;;;;;;;4.38;3.72;;;;;;;21.54;75.76;97719.31;5001922;28;20108;-80
2022/07/15 00:04:01;;;;;;;4.70;3.55;;;;;;;21.58;75.59;97706.22;5005181;28;20053;-81
2022/07/15 00:06:27;;;;;;;5.60;3.60;;;;;;;21.61;75.86;97708.31;5003382;28;20459;-80
2022/07/15 00:08:52;;;;;;;6.35;3.60;;;;;;;21.64;75.91;97706.75;5012020;28;20033;-79
2022/07/15 00:11:17;;;;;;;5.38;3.70;;;;;;;21.63;75.62;97694.00;5003716;28;20060;-79
2022/07/15 00:13:43;;;;;;;5.47;4.28;;;;;;;21.64;76.03;97703.97;5008104;28;20030;-81
2022/07/15 00:16:08;;;;;;;6.43;3.95;;;;;;;21.69;76.05;97706.41;5012727;28;20026;-80
2022/07/15 00:18:34;;;;;;;5.90;3.90;;;;;;;21.63;76.45;97703.16;5013986;28;20029;-81
2022/07/15 00:20:59;;;;;;;4.85;3.60;;;;;;;21.55;76.84;97692.28;5014338;28;20503;-81
2022/07/15 00:23:25;;;;;;;4.18;3.55;;;;;;;21.49;77.01;97689.00;5015940;28;20052;-82
2022/07/15 00:25:50;;;;;;;4.15;3.50;;;;;;;21.44;77.41;97685.72;5020999;28;20080;-81
2022/07/15 00:28:16;;;;;;;4.78;3.25;;;;;;;21.50;76.98;97678.66;5014180;28;20034;-79
2022/07/15 00:30:42;;;;;;;4.28;3.25;;;;;;;21.51;76.78;97678.31;5010632;28;20112;-79
2022/07/15 00:33:08;;;;;;;5.97;3.15;;;;;;;21.55;76.41;97683.94;5010483;28;20022;-81
2022/07/15 00:35:35;;;;;;;7.13;3.50;;;;;;;21.47;76.33;97684.97;5010544;28;20114;-79
2022/07/15 00:38:01;;;;;;;4.45;3.45;;;;;;;21.43;76.55;97686.88;5010449;28;20057;-78
2022/07/15 00:40:27;;;;;;;6.53;3.55;;;;;;;21.52;76.77;97699.38;5009466;28;20034;-79
2022/07/15 00:42:53;;;;;;;5.18;3.55;;;;;;;21.31;76.78;97680.34;5011032;28;20037;-79
2022/07/15 00:45:21;;;;;;;9.50;4.15;;;;;;;21.34;77.13;97693.53;5010708;28;20026;-78
2022/07/15 00:47:50;;;;;;;5.22;3.65;;;;;;;21.32;77.32;97690.31;5014800;28;20026;-79
2022/07/15 00:50:18;;;;;;;5.03;3.63;;;;;;;21.34;77.37;97704.66;5019323;28;20026;-83
2022/07/15 00:52:49;;;;;;;4.53;3.45;;;;;;;21.30;77.29;97687.09;5000771;28;20026;-81
2022/07/15 00:55:15;;;;;;;5.07;3.50;;;;;;;21.27;77.35;97692.59;5014671;28;20018;-80
2022/07/15 00:57:44;;;;;;;5.03;3.30;;;;;;;21.33;77.78;97693.91;5016549;28;20076;-80
2022/07/15 01:00:11;;;;;;;4.70;3.90;;;;;;;21.15;78.80;97684.44;5015843;28;20048;-80
2022/07/15 01:02:39;;;;;;;6.78;4.70;;;;;;;20.93;82.77;97688.78;5014569;28;20038;-80
2022/07/15 01:05:08;;;;;;;6.85;4.68;;;;;;;20.83;84.54;97694.97;5013470;28;20574;-79
2022/07/15 01:07:33;;;;;;;6.95;4.60;;;;;;;20.66;85.85;97684.31;5014821;28;20022;-79
2022/07/15 01:09:59;;;;;;;5.88;4.72;;;;;;;20.53;87.50;97691.19;5015673;28;20076;-81
2022/07/15 01:12:26;;;;;;;6.65;5.38;;;;;;;20.41;89.40;97703.28;4999451;28;20030;-80
2022/07/15 01:14:52;;;;;;;7.72;5.57;;;;;;;20.22;90.81;97681.00;5014054;28;20054;-78
2022/07/15 01:17:17;;;;;;;8.77;6.35;;;;;;;20.14;92.38;97684.81;5013943;28;20057;-80
2022/07/15 01:19:43;;;;;;;12.85;7.43;;;;;;;20.06;93.57;97671.94;5013587;28;20017;-79
2022/07/15 01:22:08;;;;;;;10.10;7.15;;;;;;;19.99;93.55;97661.47;4995912;28;20022;-79
2022/07/15 01:24:34;;;;;;;8.93;6.55;;;;;;;19.89;95.58;97673.13;5013560;28;20026;-79
2022/07/15 01:27:00;;;;;;;13.38;6.15;;;;;;;19.87;97.41;97686.59;5013660;28;20026;-79
2022/07/15 01:29:27;;;;;;;10.10;6.28;;;;;;;20.00;97.29;97681.72;5013789;28;20030;-79
2022/07/15 01:31:52;;;;;;;7.97;6.18;;;;;;;19.91;98.09;97675.56;5013752;28;20560;-78
2022/07/15 01:34:17;;;;;;;6.85;5.18;;;;;;;20.04;96.77;97672.31;5014325;28;20054;-79
2022/07/15 01:36:43;;;;;;;8.63;5.57;;;;;;;20.06;97.76;97681.06;5015647;28;20018;-80
2022/07/15 01:39:08;;;;;;;9.10;5.28;;;;;;;20.00;98.58;97674.19;5016158;28;20156;-79
2022/07/15 01:41:33;;;;;;;6.57;5.25;;;;;;;19.96;99.77;97678.03;5015199;28;20060;-80
2022/07/15 01:43:59;;;;;;;7.45;5.75;;;;;;;19.91;100.00;97675.56;5015646;28;20062;-80
2022/07/15 01:46:24;;;;;;;9.88;5.72;;;;;;;19.83;100.00;97682.13;5015330;28;20041;-80
2022/07/15 01:51:33;;;;;;;8.20;5.80;;;;;;;19.66;100.00;97652.81;5015171;28;20041;-80
2022/07/15 01:53:59;;;;;;;9.32;6.20;;;;;;;19.69;100.00;97652.06;5015923;28;20022;-82
2022/07/15 01:56:24;;;;;;;13.13;6.40;;;;;;;19.81;99.68;97660.28;5013292;28;20025;-78
2022/07/15 01:58:50;;;;;;;13.18;6.50;;;;;;;19.67;100.00;97663.53;5013802;28;20046;-80
2022/07/15 02:01:17;;;;;;;9.57;6.80;;;;;;;19.59;100.00;97644.31;5014740;28;20033;-78
2022/07/15 02:03:43;;;;;;;10.50;6.57;;;;;;;19.57;100.00;97647.47;4997548;28;20049;-78
2022/07/15 02:06:09;;;;;;;8.50;6.50;;;;;;;19.47;100.00;97641.66;4997503;28;20145;-80
2022/07/15 02:08:34;;;;;;;11.27;6.72;;;;;;;19.45;100.00;97642.00;5014482;28;20387;-82
2022/07/15 02:10:59;;;;;;;10.25;6.70;;;;;;;19.43;100.00;97646.31;4996951;28;20100;-81
2022/07/15 02:13:25;;;;;;;10.13;7.18;;;;;;;19.58;100.00;97656.56;4997872;28;20025;-80
2022/07/15 02:15:50;;;;;;;12.18;6.70;;;;;;;19.62;100.00;97651.91;5016296;28;20041;-83
2022/07/15 02:18:16;;;;;;;9.05;6.72;;;;;;;19.59;100.00;97649.84;5017344;28;20026;-80
2022/07/15 02:20:41;;;;;;;11.88;7.78;;;;;;;19.58;100.00;97653.78;5018428;28;20509;-84
2022/07/15 02:23:06;;;;;;;14.18;8.25;;;;;;;19.33;100.00;97650.41;5002948;28;20026;-82
2022/07/15 02:25:33;;;;;;;13.43;6.95;;;;;;;19.42;100.00;97644.72;5000453;28;20029;-84
2022/07/15 02:28:01;;;;;;;11.43;6.68;;;;;;;19.46;100.00;97653.91;5020031;28;20037;-82
2022/07/15 02:30:29;;;;;;;7.50;5.95;;;;;;;19.42;100.00;97653.03;5020397;28;20391;-82
2022/07/15 02:32:55;;;;;;;8.13;5.60;;;;;;;19.26;100.00;97650.25;5024941;28;20037;-83
2022/07/15 02:35:22;;;;;;;9.38;5.55;;;;;;;19.19;100.00;97650.88;5006161;28;20458;-82
2022/07/15 02:37:47;;;;;;;7.45;5.50;;;;;;;19.10;100.00;97649.44;5007800;28;20029;-83
2022/07/15 02:40:13;;;;;;;11.30;6.97;;;;;;;19.04;100.00;97654.47;5021831;28;20044;-80
2022/07/15 02:42:38;;;;;;;8.65;6.38;;;;;;;18.99;100.00;97657.50;5021392;28;20068;-84
2022/07/15 02:45:05;;;;;;;8.63;7.20;;;;;;;18.87;100.00;97651.22;5016856;28;20036;-80
2022/07/15 02:47:31;;;;;;;10.63;7.78;;;;;;;18.95;100.00;97664.13;4997288;28;20022;-80
2022/07/15 02:49:56;;;;;;;11.90;7.80;;;;;;;18.85;100.00;97645.25;5001869;28;20022;-80
2022/07/15 02:52:21;;;;;;;11.27;8.25;;;;;;;18.93;100.00;97658.91;4980456;28;20033;-81
2022/07/15 02:54:47;;;;;;;14.23;7.72;;;;;;;19.00;100.00;97661.06;5023727;28;20021;-84
2022/07/15 02:57:13;;;;;;;10.45;7.10;;;;;;;18.96;100.00;97658.22;5033793;28;20022;-88
2022/07/15 02:59:38;;;;;;;10.57;7.15;;;;;;;18.96;100.00;97658.22;5016577;28;20053;-78
2022/07/15 03:02:04;;;;;;;8.57;7.03;;;;;;;18.94;100.00;97654.19;5012553;28;20380;-79
2022/07/15 03:04:29;;;;;;;8.40;6.68;;;;;;;18.93;100.00;97666.44;5012258;28;20030;-79
2022/07/15 03:06:55;;;;;;;17.58;7.43;;;;;;;18.87;100.00;97656.78;5013063;28;20026;-81
2022/07/15 03:09:20;;;;;;;17.27;7.93;;;;;;;18.80;100.00;97671.25;4995814;28;20112;-80
2022/07/15 03:11:45;;;;;;;14.90;7.65;;;;;;;18.59;100.00;97665.94;5016735;28;20062;-80
2022/07/15 03:14:11;;;;;;;10.80;7.22;;;;;;;18.67;100.00;97666.94;4997438;28;20026;-80
2022/07/15 03:16:36;;;;;;;9.57;7.45;;;;;;;18.70;100.00;97657.94;5015024;28;20021;-81
2022/07/15 03:19:02;;;;;;;12.15;8.05;;;;;;;18.64;100.00;97649.06;4994097;28;20108;-79
2022/07/15 03:21:28;;;;;;;10.35;7.55;;;;;;;18.64;100.00;97649.06;5013088;28;20030;-83
2022/07/15 03:23:54;;;;;;;8.45;7.00;;;;;;;18.68;100.00;97629.75;5011826;28;20034;-78
2022/07/15 03:26:20;;;;;;;8.60;6.72;;;;;;;18.76;100.00;97659.28;5011787;28;20077;-81
2022/07/15 03:28:46;;;;;;;11.77;7.45;;;;;;;18.68;100.00;97671.31;5015211;28;20034;-79
2022/07/15 03:31:12;;;;;;;12.60;7.28;;;;;;;18.81;100.00;97672.88;5012755;28;20069;-80
2022/07/15 03:33:37;;;;;;;10.43;6.90;;;;;;;18.74;100.00;97656.03;5013560;28;20479;-82
2022/07/15 03:36:03;;;;;;;7.85;6.38;;;;;;;18.91;100.00;97668.75;5012504;28;20507;-81
2022/07/15 03:38:28;;;;;;;11.75;6.97;;;;;;;19.06;100.00;97652.13;5012746;28;20025;-81
2022/07/15 03:40:54;;;;;;;9.63;7.13;;;;;;;19.29;100.00;97654.28;5012977;28;20033;-77
2022/07/15 03:43:19;;;;;;;8.57;6.45;;;;;;;19.90;100.00;97658.09;5011556;28;20136;-78
2022/07/15 03:45:44;;;;;;;9.27;6.15;;;;;;;20.31;100.00;97676.06;5018437;28;20048;-80
2022/07/15 03:48:10;;;;;;;7.78;6.28;;;;;;;20.48;100.00;97653.41;5020071;28;20021;-82
2022/07/15 03:50:35;;;;;;;8.25;6.20;;;;;;;20.97;97.90;97678.53;5019320;28;20505;-79
2022/07/15 03:53:01;;;;;;;7.97;6.30;;;;;;;20.94;96.10;97673.72;5012681;28;20022;-80
2022/07/15 03:55:26;;;;;;;9.35;5.72;;;;;;;21.59;91.20;97681.97;5012373;28;20498;-80
2022/07/15 03:57:52;;;;;;;11.05;6.43;;;;;;;22.06;87.02;97684.31;5011574;28;20055;-81
2022/07/15 04:00:17;;;;;;;8.32;5.50;;;;;;;22.40;83.60;97677.59;5014680;28;20452;-78
2022/07/15 04:02:43;;;;;;;7.65;6.32;;;;;;;23.20;79.31;97682.50;4997609;28;20710;-81
2022/07/15 04:05:08;;;;;;;13.15;6.00;;;;;;;23.15;79.05;97688.41;5011692;28;20068;-81
2022/07/15 04:07:34;;;;;;;7.97;5.68;;;;;;;23.36;76.74;97676.63;4985236;28;20022;-78
2022/07/15 04:09:59;;;;;;;13.07;5.60;;;;;;;23.56;76.18;97688.38;4991502;28;20037;-80
2022/07/15 04:12:24;;;;;;;8.70;6.20;;;;;;;22.75;79.05;97680.81;4991638;28;20467;-78
2022/07/15 04:14:50;;;;;;;8.00;5.95;;;;;;;22.09;83.94;97681.56;4991300;28;20042;-77
2022/07/15 04:17:15;;;;;;;12.00;6.10;;;;;;;21.67;86.70;97681.75;4991148;28;20088;-77
2022/07/15 04:19:40;;;;;;;8.65;6.40;;;;;;;21.32;90.19;97681.16;5000392;28;20842;-78
2022/07/15 04:22:06;;;;;;;12.43;6.45;;;;;;;21.31;89.98;97676.75;5014239;28;20026;-78
2022/07/15 04:24:31;;;;;;;11.55;6.10;;;;;;;21.52;89.58;97698.59;5014912;28;20626;-78
2022/07/15 04:26:56;;;;;;;12.27;6.53;;;;;;;22.03;85.22;97708.16;5021658;28;20017;-85
2022/07/15 04:29:22;;;;;;;11.00;6.00;;;;;;;22.12;84.04;97717.03;5030067;28;20037;-76
2022/07/15 04:31:47;;;;;;;11.63;5.40;;;;;;;22.98;78.02;97733.69;5014912;28;20030;-78
2022/07/15 04:34:12;;;;;;;10.88;6.72;;;;;;;21.41;84.37;97742.13;5014456;28;20052;-75
2022/07/15 04:36:39;;;;;;;7.13;5.60;;;;;;;21.53;84.44;97744.72;4998345;28;20026;-76
2022/07/15 04:39:04;;;;;;;8.70;6.45;;;;;;;21.72;82.45;97750.22;5016113;28;20069;-79
2022/07/15 04:41:30;;;;;;;8.30;6.10;;;;;;;21.81;80.92;97750.75;5022850;28;20081;-79
2022/07/15 04:43:55;;;;;;;10.85;6.40;;;;;;;21.41;82.87;97765.22;5021603;28;20018;-80
2022/07/15 04:46:20;;;;;;;9.55;6.55;;;;;;;20.50;88.45;97764.19;5020859;28;20022;-81
2022/07/15 04:51:29;;;;;;;9.50;6.03;;;;;;;20.01;94.17;97774.97;5019726;28;20032;-76
2022/07/15 04:53:55;;;;;;;8.63;5.95;;;;;;;20.01;92.00;97773.00;5014059;28;20441;-78
2022/07/15 04:56:20;;;;;;;8.07;5.95;;;;;;;20.15;91.95;97780.84;4987430;28;20027;-77
2022/07/15 04:58:46;;;;;;;8.10;6.18;;;;;;;20.45;87.58;97778.38;4994600;28;20076;-77
2022/07/15 05:01:12;;;;;;;9.70;6.07;;;;;;;20.95;85.53;97775.47;5014058;28;20033;-80
2022/07/15 05:03:37;;;;;;;8.30;6.03;;;;;;;21.10;84.56;97782.13;5002210;28;20029;-77
2022/07/15 05:06:03;;;;;;;15.63;5.93;;;;;;;21.03;84.54;97779.16;4994904;28;20058;-76
2022/07/15 05:08:29;;;;;;;8.43;5.28;;;;;;;21.13;83.83;97784.16;4999540;28;20022;-75
2022/07/15 05:10:55;;;;;;;9.40;5.55;;;;;;;21.38;82.70;97787.41;5007107;28;20042;-77
2022/07/15 05:13:20;;;;;;;13.32;5.57;;;;;;;21.22;82.72;97782.75;4987797;28;20394;-83
2022/07/15 05:15:46;;;;;;;7.40;6.05;;;;;;;21.27;81.98;97788.00;5009441;28;20030;-80
2022/07/15 05:18:11;;;;;;;8.73;5.28;;;;;;;21.52;80.01;97796.03;5007440;28;20090;-80
2022/07/15 05:20:36;;;;;;;6.95;5.32;;;;;;;21.76;78.91;97799.25;5003590;28;20033;-81
2022/07/15 05:23:03;;;;;;;6.93;5.50;;;;;;;21.91;79.08;97799.50;5003762;28;20030;-80
2022/07/15 05:25:28;;;;;;;10.13;6.25;;;;;;;22.31;75.98;97808.88;4994827;28;20026;-84
2022/07/15 05:27:54;;;;;;;7.25;5.35;;;;;;;22.29;75.19;97804.88;5010094;28;20031;-81
2022/07/15 05:30:20;;;;;;;9.25;5.10;;;;;;;21.86;76.99;97825.66;5006635;28;20475;-83
2022/07/15 05:32:45;;;;;;;7.05;5.38;;;;;;;21.62;77.40;97823.22;5000435;28;20045;-82
2022/07/15 05:35:14;;;;;;;9.38;5.40;;;;;;;21.77;76.52;97822.34;4997034;28;20077;-80
2022/07/15 05:37:40;;;;;;;8.02;5.28;;;;;;;22.31;74.16;97831.19;4995959;28;20502;-83
2022/07/15 05:40:07;;;;;;;12.25;4.75;;;;;;;22.49;72.85;97822.28;5008591;28;20031;-82
2022/07/15 05:42:32;;;;;;;9.60;5.10;;;;;;;22.65;71.41;97839.63;5010671;28;20027;-83
2022/07/15 05:44:58;;;;;;;8.18;5.30;;;;;;;22.48;72.66;97840.19;5006782;28;20077;-81
2022/07/15 05:47:23;;;;;;;6.18;4.82;;;;;;;21.88;74.04;97840.00;4996396;28;20026;-85
2022/07/15 05:49:48;;;;;;;7.45;4.82;;;;;;;22.19;73.49;97839.75;4998711;28;20031;-83
2022/07/15 05:52:14;;;;;;;5.78;4.40;;;;;;;22.23;72.20;97849.00;5001303;28;20034;-80
2022/07/15 05:54:39;;;;;;;10.00;4.55;;;;;;;22.32;69.63;97855.09;4996358;28;20103;-82
2022/07/15 05:57:04;;;;;;;9.40;4.65;;;;;;;22.58;69.06;97856.28;4999369;28;20030;-84
2022/07/15 05:59:31;;;;;;;5.22;4.30;;;;;;;22.94;66.75;97864.78;5001138;28;20045;-83
2022/07/15 06:01:57;;;;;;;6.13;4.18;;;;;;;22.96;64.75;97872.00;5018284;28;20033;-83
2022/07/15 06:04:26;;;;;;;4.95;3.78;;;;;;;22.75;64.03;97864.13;5021888;28;21005;-83
2022/07/15 06:06:51;;;;;;;7.50;3.90;;;;;;;23.03;62.72;97864.50;5020754;28;20029;-82
2022/07/15 06:09:17;;;;;;;16.58;4.30;;;;;;;23.14;62.87;97873.81;5021484;28;20030;-83
2022/07/15 06:11:42;;;;;;;6.22;3.67;;;;;;;23.45;61.35;97876.22;5023302;28;20038;-82
2022/07/15 06:14:07;;;;;;;6.78;4.53;;;;;;;23.15;61.66;97872.63;5016859;28;20438;-79
2022/07/15 06:16:33;;;;;;;6.00;3.95;;;;;;;23.33;61.87;97861.69;5022591;28;20532;-81
2022/07/15 06:18:59;;;;;;;6.47;3.50;;;;;;;23.61;61.16;97876.00;5008597;28;20038;-82
2022/07/15 06:21:24;;;;;;;7.00;3.90;;;;;;;23.55;60.72;97877.53;5016581;28;20034;-81
2022/07/15 06:23:49;;;;;;;11.65;3.92;;;;;;;23.40;61.36;97873.75;5019250;28;20026;-83
2022/07/15 06:26:15;;;;;;;5.40;4.15;;;;;;;23.52;61.61;97891.44;5016359;28;20029;-79
2022/07/15 06:28:40;;;;;;;5.85;3.70;;;;;;;24.12;60.21;97894.91;5024486;28;20036;-82
2022/07/15 06:31:06;;;;;;;6.25;3.58;;;;;;;24.43;58.89;97895.13;5025676;28;20050;-84
2022/07/15 06:33:31;;;;;;;8.63;3.65;;;;;;;24.43;58.81;97903.53;5003777;28;20030;-83
2022/07/15 06:35:57;;;;;;;6.55;3.80;;;;;;;24.67;58.54;97904.91;5018579;28;20049;-82
2022/07/15 06:38:22;;;;;;;5.95;3.80;;;;;;;24.73;58.05;97905.34;5017474;28;20029;-82
2022/07/15 06:40:47;;;;;;;5.28;3.55;;;;;;;24.41;56.91;97910.69;5017909;28;20032;-81
2022/07/15 06:43:13;;;;;;;5.72;3.65;;;;;;;24.69;57.15;97907.31;4998450;28;20041;-82
2022/07/15 06:45:38;;;;;;;4.05;3.30;;;;;;;25.12;56.36;97919.63;5016781;28;20049;-83
2022/07/15 06:48:04;;;;;;;5.32;3.35;;;;;;;25.40;55.44;97916.97;5001327;28;20030;-82
2022/07/15 06:50:29;;;;;;;4.63;3.80;;;;;;;25.63;54.66;97933.47;5023528;28;20038;-81
2022/07/15 06:52:55;;;;;;;11.48;4.10;;;;;;;25.67;54.82;97932.28;5026051;28;20056;-82
2022/07/15 06:55:20;;;;;;;5.40;4.22;;;;;;;25.80;55.12;97932.72;5009698;28;20048;-82
2022/07/15 06:57:46;;;;;;;4.60;3.70;;;;;;;25.56;55.65;97935.03;5022041;28;20072;-81
2022/07/15 07:00:13;;;;;;;5.55;3.97;;;;;;;25.70;55.69;97930.69;5002833;28;20028;-81
2022/07/15 07:02:39;;;;;;;5.63;3.80;;;;;;;25.98;54.61;97933.56;5017526;28;20387;-82
2022/07/15 07:05:05;;;;;;;11.40;4.07;;;;;;;26.08;54.36;97933.59;5016541;28;20029;-80
2022/07/15 07:07:30;;;;;;;6.13;3.97;;;;;;;25.91;54.79;97922.34;5017696;28;20025;-83
2022/07/15 07:09:56;;;;;;;8.52;3.70;;;;;;;25.93;55.59;97937.59;5019894;28;20014;-80
2022/07/15 07:12:21;;;;;;;11.40;4.25;;;;;;;26.07;55.13;97942.41;5020266;28;20030;-84
2022/07/15 07:14:46;;;;;;;4.63;3.63;;;;;;;26.01;55.68;97946.81;5021627;28;20051;-80
2022/07/15 07:17:12;;;;;;;5.00;3.28;;;;;;;26.13;55.29;97935.19;5021100;28;20022;-80
2022/07/15 07:19:37;;;;;;;5.07;3.28;;;;;;;26.27;55.15;97934.47;5015249;28;20491;-74
2022/07/15 07:22:04;;;;;;;8.05;3.38;;;;;;;26.52;54.59;97930.47;5004254;28;20647;-79
2022/07/15 07:24:30;;;;;;;7.18;3.30;;;;;;;26.80;53.28;97940.06;4997178;28;20479;-80
2022/07/15 07:26:56;;;;;;;5.82;3.40;;;;;;;26.50;54.00;97946.09;5010682;28;20026;-72
2022/07/15 07:29:25;;;;;;;6.22;3.40;;;;;;;26.48;54.88;97940.06;5011072;28;20029;-77
2022/07/15 07:31:51;;;;;;;5.78;3.40;;;;;;;26.67;54.45;97938.88;5011964;28;20036;-74
2022/07/15 07:34:17;;;;;;;5.22;3.72;;;;;;;26.46;54.37;97943.28;5010821;28;20049;-75
2022/07/15 07:36:44;;;;;;;4.47;3.30;;;;;;;26.58;54.23;97945.69;5010882;28;20022;-77
2022/07/15 07:39:10;;;;;;;5.28;3.50;;;;;;;26.70;53.54;97919.22;4993257;28;20057;-75
2022/07/15 07:41:36;;;;;;;4.18;3.42;;;;;;;26.77;52.48;97935.25;5011444;28;20061;-75
2022/07/15 07:44:01;;;;;;;4.32;3.65;;;;;;;27.37;51.61;97937.97;5010928;28;20029;-75
2022/07/15 07:46:26;;;;;;;6.80;3.60;;;;;;;26.76;52.59;97934.44;5010995;28;20026;-75
2022/07/15 07:48:52;;;;;;;5.28;3.10;;;;;;;26.77;53.42;97941.69;5010890;28;20022;-74
2022/07/15 07:51:17;;;;;;;7.45;3.30;;;;;;;26.63;53.30;97940.91;5010672;28;20038;-76
2022/07/15 07:53:43;;;;;;;4.30;3.00;;;;;;;26.81;52.33;97938.91;5010557;28;20026;-75
2022/07/15 07:56:08;;;;;;;4.68;3.70;;;;;;;27.24;50.90;97940.41;5010640;28;20037;-76
2022/07/15 07:58:34;;;;;;;5.88;3.58;;;;;;;27.52;49.46;97951.59;5010903;28;20033;-80
2022/07/15 08:00:59;;;;;;;4.30;3.15;;;;;;;27.44;48.82;97955.63;5010436;28;20038;-75
2022/07/15 08:03:27;;;;;;;6.28;3.10;;;;;;;27.38;48.16;97945.19;4990818;28;20101;-76
2022/07/15 08:05:53;;;;;;;5.60;3.17;;;;;;;27.27;48.71;97953.66;5010370;28;20022;-78
2022/07/15 08:08:20;;;;;;;4.57;3.03;;;;;;;27.36;47.61;97956.84;5015088;28;20113;-74
2022/07/15 08:10:52;;;;;;;6.18;2.90;;;;;;;27.50;47.21;97948.38;5010414;28;20033;-78
2022/07/15 08:13:21;;;;;;;3.60;2.78;;;;;;;27.48;47.68;97950.78;5010598;28;20087;-77
2022/07/15 08:15:47;;;;;;;4.93;2.95;;;;;;;27.89;46.59;97953.81;5011004;28;20033;-76
2022/07/15 08:18:13;;;;;;;3.78;2.92;;;;;;;27.59;46.19;97948.75;5010470;28;20038;-75
2022/07/15 08:20:39;;;;;;;8.80;3.42;;;;;;;27.76;46.48;97949.06;5010508;28;20041;-76
2022/07/15 08:23:05;;;;;;;5.88;3.10;;;;;;;27.96;45.75;97953.00;5011451;28;20030;-74
2022/07/15 08:25:34;;;;;;;4.07;3.28;;;;;;;28.04;45.18;97952.53;5004265;28;20767;-73
2022/07/15 08:27:59;;;;;;;6.93;2.83;;;;;;;28.14;44.86;97950.91;4998823;28;20030;-76
2022/07/15 08:30:26;;;;;;;3.50;3.00;;;;;;;28.01;45.17;97961.00;4994273;28;20517;-74
2022/07/15 08:32:52;;;;;;;4.70;3.03;;;;;;;27.66;46.03;97954.34;4999175;28;20026;-77
2022/07/15 08:35:17;;;;;;;3.55;2.58;;;;;;;27.74;45.80;97946.69;5010813;28;20125;-75
2022/07/15 08:37:43;;;;;;;5.93;2.85;;;;;;;27.74;45.42;97948.69;5010636;28;20117;-77
2022/07/15 08:40:09;;;;;;;4.00;3.10;;;;;;;27.91;45.58;97954.22;5010067;28;20466;-74
2022/07/15 08:42:35;;;;;;;4.32;2.60;;;;;;;27.80;45.41;97961.91;5011091;28;20017;-75
2022/07/15 08:45:01;;;;;;;6.00;2.70;;;;;;;27.80;45.16;97953.47;5010663;28;20026;-74
2022/07/15 08:47:31;;;;;;;5.25;2.90;;;;;;;27.87;45.16;97956.25;5009712;28;20030;-74
2022/07/15 08:49:57;;;;;;;3.97;2.78;;;;;;;27.81;45.45;97976.78;5000490;28;20475;-75
2022/07/15 08:52:26;;;;;;;6.15;3.00;;;;;;;27.47;45.73;97946.38;5008889;28;20097;-73
2022/07/15 08:54:51;;;;;;;3.47;2.90;;;;;;;27.83;45.35;97955.47;5010244;28;20080;-74
2022/07/15 08:57:18;;;;;;;4.22;3.08;;;;;;;28.02;44.54;97959.78;5009706;28;20030;-75
2022/07/15 08:59:46;;;;;;;3.13;2.53;;;;;;;28.02;44.91;97960.59;5009938;28;20029;-74
2022/07/15 09:02:20;;;;;;;6.05;3.05;;;;;;;28.46;44.51;97948.66;5009906;28;20149;-74
2022/07/15 09:05:22;;;;;;;5.55;2.60;;;;;;;28.22;44.83;97960.91;5009743;28;20037;-75
2022/07/15 09:07:53;;;;;;;4.97;2.85;;;;;;;27.57;45.69;97959.59;5012431;28;20077;-76
2022/07/15 09:10:20;;;;;;;4.15;2.92;;;;;;;27.87;45.27;97958.25;5011060;28;20395;-74
2022/07/15 09:12:49;;;;;;;3.45;2.78;;;;;;;27.78;45.57;97955.09;5013269;28;20448;-74
2022/07/15 09:15:35;;;;;;;5.28;2.85;;;;;;;28.31;44.68;97944.38;5011769;28;20140;-76
2022/07/15 09:18:06;;;;;;;8.60;3.17;;;;;;;28.17;44.55;97958.50;5011621;28;20033;-75
2022/07/15 09:20:32;;;;;;;3.45;2.97;;;;;;;28.02;44.18;97946.53;5009150;28;20053;-78
2022/07/15 09:22:57;;;;;;;3.58;3.00;;;;;;;28.12;44.97;97958.97;5009181;28;20037;-74
2022/07/15 09:25:23;;;;;;;3.20;2.60;;;;;;;27.84;44.68;97959.09;5014435;28;20030;-76
2022/07/15 09:27:50;;;;;;;3.10;2.80;;;;;;;29.58;41.41;97964.94;5013244;28;20526;-82
2022/07/15 09:36:05;;;;;;;4.15;2.92;;;;;;;31.31;37.42;97968.00;5021155;28;20072;-82
2022/07/15 09:38:35;;;;;;;3.90;3.05;;;;;;;31.83;35.88;97985.16;5027458;28;20030;-84
2022/07/15 09:41:03;;;;;;;3.60;2.72;;;;;;;31.42;36.62;97973.47;5017830;28;20141;-85
2022/07/15 09:43:28;;;;;;;4.63;2.65;;;;;;;32.19;34.81;97971.88;5028306;28;20031;-83
2022/07/15 09:45:59;;;;;;;2.83;2.47;;;;;;;32.60;34.61;97957.19;5024256;28;20022;-86
2022/07/15 09:48:28;;;;;;;3.25;2.92;;;;;;;31.26;36.52;97965.69;5013148;28;20081;-83
2022/07/15 09:50:58;;;;;;;4.10;2.60;;;;;;;32.86;34.47;97946.84;5030883;28;20050;-81
2022/07/15 09:53:24;;;;;;;3.88;2.97;;;;;;;31.75;36.41;97958.25;5026606;28;20040;-83
2022/07/15 09:55:51;;;;;;;10.00;3.33;;;;;;;32.48;34.24;97943.69;5013606;28;20474;-84
2022/07/15 09:58:18;;;;;;;3.35;2.97;;;;;;;33.67;33.04;97956.03;5024312;28;20052;-86
2022/07/15 10:00:44;;;;;;;4.00;2.90;;;;;;;33.42;32.78;97950.22;5010574;28;20058;-82
2022/07/15 10:03:11;;;;;;;3.85;2.70;;;;;;;33.25;33.13;97946.63;5027418;28;20092;-84
2022/07/15 10:05:39;;;;;;;4.88;2.85;;;;;;;32.16;34.92;97937.97;5017036;28;20033;-81
2022/07/15 10:08:08;;;;;;;4.10;3.70;;;;;;;31.41;36.17;97933.06;5028887;28;20038;-83
2022/07/15 10:10:35;;;;;;;3.78;3.00;;;;;;;32.17;35.51;97933.91;5007548;28;20038;-82
2022/07/15 10:13:25;;;;;;;4.38;2.90;;;;;;;31.22;36.90;97926.16;5030357;28;20018;-82
2022/07/15 10:16:15;;;;;;;3.15;2.65;;;;;;;30.94;37.43;97934.34;5015566;28;20072;-85
2022/07/15 10:19:08;;;;;;;3.70;2.75;;;;;;;31.08;37.16;97934.09;5030652;28;20502;-82
2022/07/15 10:21:53;;;;;;;3.97;3.13;;;;;;;32.10;35.67;97922.75;5031195;28;20600;-85
2022/07/15 10:24:19;;;;;;;4.43;3.10;;;;;;;32.81;34.51;97928.31;5030677;28;20056;-82
2022/07/15 10:27:02;;;;;;;4.72;3.22;;;;;;;32.46;34.90;97929.16;5029157;28;20479;-81
2022/07/15 10:29:31;;;;;;;4.90;3.20;;;;;;;32.56;34.66;97925.31;5029552;28;20095;-82
2022/07/15 10:31:58;;;;;;;4.93;2.90;;;;;;;31.93;35.55;97938.06;5026112;28;20033;-81
2022/07/15 10:34:32;;;;;;;3.13;2.72;;;;;;;32.44;35.28;97928.00;5028559;28;20045;-86
2022/07/15 10:37:01;;;;;;;3.70;3.00;;;;;;;32.05;36.15;97929.72;5014036;28;20072;-83
2022/07/15 10:39:49;;;;;;;3.72;2.60;;;;;;;30.65;38.50;97934.03;5016239;28;20113;-85
2022/07/15 10:42:15;;;;;;;4.47;3.22;;;;;;;29.75;40.56;97918.78;4991538;28;20027;-84
2022/07/15 10:45:01;;;;;;;4.40;3.25;;;;;;;29.48;41.37;97915.09;5014422;28;20029;-82
2022/07/15 10:47:26;;;;;;;5.28;2.78;;;;;;;29.48;41.52;97910.25;5033496;28;19997;-86
2022/07/15 10:49:52;;;;;;;6.18;3.17;;;;;;;30.05;40.35;97918.00;5018981;28;20076;-83
2022/07/15 10:52:18;;;;;;;5.07;3.28;;;;;;;29.90;40.73;97913.78;5030261;28;20065;-84
2022/07/15 10:54:55;;;;;;;4.38;3.13;;;;;;;29.76;40.61;97909.88;5031786;28;20029;-87
2022/07/15 10:57:39;;;;;;;3.40;2.80;;;;;;;29.65;40.87;97908.44;5032277;28;20033;-82
2022/07/15 11:00:24;;;;;;;4.35;3.15;;;;;;;29.43;42.08;97907.91;5031798;28;20084;-85
2022/07/15 11:03:08;;;;;;;5.32;3.22;;;;;;;29.38;41.86;97908.41;5031311;28;20045;-83
2022/07/15 11:05:35;;;;;;;3.88;2.88;;;;;;;29.45;41.49;97904.66;5028434;28;20021;-82
2022/07/15 11:08:20;;;;;;;4.82;3.20;;;;;;;29.34;41.87;97902.00;5015767;28;20030;-84
2022/07/15 11:10:45;;;;;;;4.63;2.90;;;;;;;29.26;42.17;97903.28;5025518;28;20034;-82
2022/07/15 11:13:12;;;;;;;8.07;3.25;;;;;;;28.81;43.28;97901.72;5024362;28;20029;-82
2022/07/15 11:15:37;;;;;;;9.32;3.17;;;;;;;28.69;43.46;97895.38;5013586;28;20010;-85
2022/07/15 11:18:04;;;;;;;4.18;3.42;;;;;;;28.75;43.09;97878.88;5034673;28;20064;-82
2022/07/15 11:20:36;;;;;;;3.60;3.08;;;;;;;28.85;42.99;97892.00;5031824;28;20072;-85
2022/07/15 11:23:02;;;;;;;3.72;3.08;;;;;;;29.05;42.28;97887.38;5031496;28;20044;-84
2022/07/15 11:25:38;;;;;;;3.35;2.97;;;;;;;29.11;42.71;97890.53;5030774;28;20053;-84
2022/07/15 11:28:03;;;;;;;5.05;3.33;;;;;;;28.88;42.65;97887.59;5031390;28;20010;-82
2022/07/15 11:30:54;;;;;;;5.68;3.10;;;;;;;28.69;43.58;97886.94;5025192;28;20025;-80
2022/07/15 11:33:25;;;;;;;8.25;3.67;;;;;;;28.87;43.46;97898.06;5025476;28;20010;-83
2022/07/15 11:35:53;;;;;;;3.22;2.83;;;;;;;28.76;43.00;97893.75;5007875;28;20046;-82
2022/07/15 11:38:24;;;;;;;4.15;3.30;;;;;;;28.99;42.80;97885.44;5017192;28;20073;-81
2022/07/15 11:46:22;;;;;;;6.60;3.10;;;;;;;28.58;43.59;97885.41;5012427;28;20025;-81